Oak Grove, California
Current Conditions -  °F | °C
As of 10:53 AM on Monday 20 Oct 2014 (Local Time) from KOVE Reporting Station
Overcast Overcast  
Wind Chill: 67°   Ceiling: 4800
Heat Index: 67°   Visibility: 10mi
Dew Point: 54°   Wind: 20mph
Humidity: 63%   Direction: 160°SSE
Pressure: 29.94"   Gusts: NA
Location:  39.5324°N, 121.648°W
Report Text: KOVE 201753Z AUTO 16017KT 10SM BKN048 OVC060 19/12 A2994 RMK AO2 PK WND 16026/1735 SLP139 T01940122 10200 20144 51012 $
Loading
Personal Weather Stations






























Interactive Weather Map
Tropical Storm Tracking
New forecast layout! Learn more

10-Day Weather Forecast

Advertisements
Track Severe Weather on mobile